Time;durP1;ratioP1;P1;durP2;ratioP2;P2;SDS_P1;SDS_P2;PMS_P1;PMS_P2;Temp;Humidity;BMP_temperature;BMP_pressure;BME280_temperature;BME280_humidity;BME280_pressure;Samples;Min_cycle;Max_cycle;Signal;HPM_P1;HPM_P2
2023/09/07 00:02:22;;;;;;;11.98;7.22;;;22.60;91.40;;;;;;4964461;28;20059;-81
2023/09/07 00:05:08;;;;;;;10.02;6.65;;;22.50;91.70;;;;;;4974276;28;20138;-85
2023/09/07 00:07:36;;;;;;;9.93;7.32;;;22.50;91.60;;;;;;4979307;28;20117;-83
2023/09/07 00:10:04;;;;;;;12.95;7.22;;;22.60;91.60;;;;;;4980737;28;20042;-81
2023/09/07 00:12:33;;;;;;;11.38;7.20;;;22.50;91.50;;;;;;4985701;28;20121;-81
2023/09/07 00:15:00;;;;;;;9.95;6.72;;;22.60;91.60;;;;;;4982394;28;20035;-83
2023/09/07 00:17:29;;;;;;;10.63;6.82;;;22.60;91.60;;;;;;4988564;28;20219;-82
2023/09/07 00:19:58;;;;;;;10.02;6.57;;;22.50;91.90;;;;;;4984766;28;20101;-84
2023/09/07 00:22:28;;;;;;;14.07;7.72;;;22.40;91.90;;;;;;4980940;28;20039;-81
2023/09/07 00:24:55;;;;;;;;;;;22.40;92.00;;;;;;4982348;28;20047;-86
2023/09/07 00:27:23;;;;;;;10.60;6.70;;;22.40;92.10;;;;;;4986804;28;19968;-83
2023/09/07 00:29:50;;;;;;;10.77;6.35;;;22.30;92.20;;;;;;4978455;28;20042;-82
2023/09/07 00:32:17;;;;;;;11.18;6.60;;;22.30;92.20;;;;;;4979156;28;20038;-85
2023/09/07 00:34:44;;;;;;;10.13;6.68;;;22.20;92.60;;;;;;4969875;28;20050;-84
2023/09/07 00:37:15;;;;;;;10.27;6.70;;;22.40;92.20;;;;;;4973339;28;20081;-83
2023/09/07 00:39:42;;;;;;;;;;;22.40;92.20;;;;;;4981619;28;20462;-82
2023/09/07 00:42:12;;;;;;;8.70;6.55;;;22.10;92.80;;;;;;4980404;28;19921;-84
2023/09/07 00:44:39;;;;;;;9.93;6.75;;;22.10;92.90;;;;;;4982098;28;20065;-82
2023/09/07 00:47:07;;;;;;;10.57;6.90;;;22.00;93.00;;;;;;4981358;28;20069;-79
2023/09/07 00:49:34;;;;;;;11.57;6.97;;;22.00;93.00;;;;;;4967908;28;20090;-81
2023/09/07 00:52:02;;;;;;;10.13;6.65;;;22.10;93.10;;;;;;4981204;28;20093;-80
2023/09/07 00:54:30;;;;;;;9.77;6.70;;;22.00;93.30;;;;;;4985287;28;20077;-83
2023/09/07 00:56:57;;;;;;;10.18;6.43;;;22.10;93.20;;;;;;4976902;28;20113;-81
2023/09/07 00:59:25;;;;;;;10.88;7.13;;;22.00;93.40;;;;;;4977968;28;20098;-79
2023/09/07 01:01:52;;;;;;;15.77;7.05;;;22.10;93.50;;;;;;5016798;28;20120;-81
2023/09/07 01:04:19;;;;;;;8.70;6.63;;;22.20;93.40;;;;;;5006576;28;20045;-80
2023/09/07 01:07:01;;;;;;;8.80;6.40;;;22.00;93.60;;;;;;5016761;28;20770;-82
2023/09/07 01:09:32;;;;;;;10.70;7.00;;;21.90;93.70;;;;;;5016655;28;20113;-82
2023/09/07 01:11:59;;;;;;;10.70;6.90;;;22.10;93.70;;;;;;5025978;28;20076;-83
2023/09/07 01:14:36;;;;;;;10.02;7.05;;;22.30;93.40;;;;;;5004381;28;20052;-84
2023/09/07 01:17:05;;;;;;;9.88;6.57;;;22.40;93.20;;;;;;5015376;28;20056;-81
2023/09/07 01:19:33;;;;;;;11.23;6.85;;;22.50;92.90;;;;;;5026372;28;20090;-85
2023/09/07 01:22:01;;;;;;;9.52;6.68;;;22.50;92.90;;;;;;5024111;28;20409;-84
2023/09/07 01:24:30;;;;;;;12.02;6.70;;;22.50;93.10;;;;;;5015406;28;20132;-90
2023/09/07 01:26:58;;;;;;;11.77;6.90;;;22.40;93.10;;;;;;5003141;28;20091;-81
2023/09/07 01:29:29;;;;;;;12.88;7.10;;;22.00;93.70;;;;;;5017188;28;20061;-83
2023/09/07 01:31:57;;;;;;;10.57;7.20;;;22.10;93.80;;;;;;5023584;28;20055;-80
2023/09/07 01:34:25;;;;;;;10.40;6.57;;;22.00;94.00;;;;;;5025852;28;20045;-85
2023/09/07 01:36:53;;;;;;;10.30;6.32;;;22.00;94.00;;;;;;5017667;28;20054;-83
2023/09/07 01:39:20;;;;;;;11.48;6.88;;;22.00;94.00;;;;;;5016671;28;20448;-86
2023/09/07 01:41:47;;;;;;;9.85;6.20;;;22.00;94.10;;;;;;5009607;28;20055;-82
2023/09/07 01:44:15;;;;;;;9.82;6.88;;;21.80;94.40;;;;;;5003029;28;20049;-83
2023/09/07 01:46:42;;;;;;;9.68;6.80;;;21.90;94.50;;;;;;5025641;28;20056;-86
2023/09/07 01:49:09;;;;;;;9.07;6.47;;;21.90;94.40;;;;;;5021198;28;20037;-82
2023/09/07 01:51:37;;;;;;;11.02;7.38;;;22.00;94.50;;;;;;5019383;28;20144;-84
2023/09/07 01:54:05;;;;;;;10.25;7.28;;;22.00;94.60;;;;;;5019532;28;20470;-82
2023/09/07 01:56:32;;;;;;;11.10;7.32;;;22.00;94.40;;;;;;5018268;28;20046;-85
2023/09/07 01:58:59;;;;;;;12.13;6.90;;;22.00;94.40;;;;;;5021281;28;20476;-85
2023/09/07 02:01:31;;;;;;;11.00;7.60;;;22.00;94.50;;;;;;5022070;28;20156;-84
2023/09/07 02:03:58;;;;;;;9.75;6.88;;;22.00;94.60;;;;;;5015156;28;20038;-87
2023/09/07 02:06:25;;;;;;;10.65;7.10;;;22.00;94.50;;;;;;5022340;28;20449;-86
2023/09/07 02:08:52;;;;;;;9.77;7.15;;;22.00;94.50;;;;;;5004476;28;20117;-84
2023/09/07 02:11:20;;;;;;;9.45;6.78;;;22.10;94.60;;;;;;5025865;28;20041;-86
2023/09/07 02:13:47;;;;;;;13.05;6.70;;;22.30;94.40;;;;;;5020987;28;20042;-87
2023/09/07 02:16:15;;;;;;;10.27;6.70;;;22.30;94.20;;;;;;5019893;28;20045;-83
2023/09/07 02:18:45;;;;;;;9.52;6.95;;;22.20;94.30;;;;;;5024416;28;20045;-86
2023/09/07 02:21:13;;;;;;;9.27;6.72;;;22.20;94.20;;;;;;5025518;28;20038;-85
2023/09/07 02:23:40;;;;;;;9.45;6.50;;;22.30;94.30;;;;;;5019106;28;20041;-87
2023/09/07 02:26:08;;;;;;;10.57;7.30;;;22.20;94.20;;;;;;5028820;28;20673;-78
2023/09/07 02:28:35;;;;;;;10.57;6.40;;;22.00;94.50;;;;;;5016886;28;20048;-86
2023/09/07 02:31:06;;;;;;;9.32;6.57;;;22.10;94.60;;;;;;5005172;28;20045;-84
2023/09/07 02:33:35;;;;;;;11.63;7.03;;;22.30;94.60;;;;;;5022532;28;20442;-86
2023/09/07 02:36:03;;;;;;;11.32;6.57;;;22.30;94.40;;;;;;5024447;28;20108;-86
2023/09/07 02:38:30;;;;;;;10.35;6.97;;;22.30;94.40;;;;;;5018633;28;20526;-82
2023/09/07 02:40:58;;;;;;;11.15;6.90;;;22.30;94.40;;;;;;5019492;28;20713;-79
2023/09/07 02:43:25;;;;;;;11.23;6.90;;;22.40;94.40;;;;;;5019535;28;20112;-87
2023/09/07 02:45:53;;;;;;;9.52;6.95;;;22.30;94.30;;;;;;5026144;28;20132;-85
2023/09/07 02:48:20;;;;;;;9.18;6.72;;;22.30;94.30;;;;;;5001217;28;20038;-86
2023/09/07 02:50:50;;;;;;;10.00;6.53;;;22.20;94.40;;;;;;5018514;28;21057;-87
2023/09/07 02:53:18;;;;;;;10.10;7.45;;;22.20;94.60;;;;;;5022730;28;20109;-89
2023/09/07 02:55:46;;;;;;;12.00;6.72;;;22.30;94.60;;;;;;5020318;28;20494;-83
2023/09/07 02:58:13;;;;;;;8.95;7.18;;;22.30;94.80;;;;;;5022611;28;20509;-81
2023/09/07 03:00:44;;;;;;;9.55;6.60;;;22.30;95.00;;;;;;5017113;28;20085;-85
2023/09/07 03:03:12;;;;;;;11.52;7.68;;;22.40;95.00;;;;;;5022184;28;20050;-85
2023/09/07 03:05:43;;;;;;;10.15;6.80;;;22.50;95.30;;;;;;5022942;28;20489;-82
2023/09/07 03:08:10;;;;;;;14.27;8.00;;;22.40;95.70;;;;;;5020759;28;20042;-83
2023/09/07 03:10:39;;;;;;;10.05;7.25;;;22.40;96.10;;;;;;5019276;28;20493;-87
2023/09/07 03:13:08;;;;;;;8.93;6.90;;;22.40;96.20;;;;;;5022271;28;20092;-85
2023/09/07 03:15:35;;;;;;;9.30;7.50;;;22.40;96.30;;;;;;5022685;28;20053;-85
2023/09/07 03:18:03;;;;;;;10.55;7.10;;;22.20;97.00;;;;;;5016310;28;20097;-84
2023/09/07 03:20:34;;;;;;;11.50;7.10;;;22.20;97.60;;;;;;4998992;28;20042;-84
2023/09/07 03:23:02;;;;;;;11.43;7.15;;;22.10;97.90;;;;;;5022202;28;20489;-86
2023/09/07 03:25:29;;;;;;;11.00;7.20;;;22.20;98.20;;;;;;5027491;28;20038;-84
2023/09/07 03:27:57;;;;;;;11.70;7.45;;;22.20;98.60;;;;;;5007836;28;20494;-86
2023/09/07 03:30:24;;;;;;;9.75;7.20;;;22.20;99.30;;;;;;5014185;28;20034;-87
2023/09/07 03:32:52;;;;;;;13.43;7.55;;;22.20;99.90;;;;;;5025471;28;20439;-81
2023/09/07 03:35:20;;;;;;;12.88;7.97;;;21.90;99.90;;;;;;5018159;28;20061;-85
2023/09/07 03:37:47;;;;;;;11.70;7.88;;;21.90;99.90;;;;;;5023095;28;20303;-83
2023/09/07 03:40:14;;;;;;;13.52;8.18;;;21.80;99.90;;;;;;5030965;28;20532;-87
2023/09/07 03:42:43;;;;;;;13.95;9.00;;;21.80;99.90;;;;;;5029479;28;20045;-91
2023/09/07 03:45:10;;;;;;;11.75;8.32;;;21.80;99.90;;;;;;5032155;28;20105;-89
2023/09/07 03:47:38;;;;;;;11.85;8.10;;;21.80;99.90;;;;;;5037461;28;20058;-90
2023/09/07 03:50:06;;;;;;;13.98;7.55;;;21.70;99.90;;;;;;5019726;28;20045;-82
2023/09/07 03:52:33;;;;;;;13.35;8.05;;;21.80;99.90;;;;;;5024871;28;20069;-85
2023/09/07 03:55:01;;;;;;;12.65;7.90;;;21.60;99.90;;;;;;5024729;28;20040;-85
2023/09/07 03:57:29;;;;;;;11.38;8.07;;;21.70;99.90;;;;;;5023804;28;20498;-84
2023/09/07 03:59:58;;;;;;;10.85;8.02;;;21.70;99.90;;;;;;5018529;28;20420;-83
2023/09/07 04:02:25;;;;;;;14.13;8.43;;;21.70;99.90;;;;;;5021063;28;20041;-81
2023/09/07 04:04:55;;;;;;;17.02;9.23;;;21.80;99.90;;;;;;5023783;28;20029;-81
2023/09/07 04:07:22;;;;;;;13.93;8.43;;;21.70;99.90;;;;;;5021817;28;20042;-83
2023/09/07 04:09:51;;;;;;;11.18;8.30;;;21.70;99.90;;;;;;5026338;28;20046;-85
2023/09/07 04:12:20;;;;;;;13.07;9.18;;;21.60;99.90;;;;;;5024401;28;20133;-86
2023/09/07 04:14:49;;;;;;;14.27;9.35;;;21.60;99.90;;;;;;5014061;28;20042;-87
2023/09/07 04:17:18;;;;;;;12.38;8.35;;;21.60;99.90;;;;;;5023748;28;20408;-84
2023/09/07 04:19:46;;;;;;;13.00;8.85;;;21.50;99.90;;;;;;5026639;28;20501;-84
2023/09/07 04:22:13;;;;;;;15.98;8.98;;;21.50;99.90;;;;;;5023784;28;20049;-84
2023/09/07 04:24:41;;;;;;;11.27;8.43;;;21.40;99.90;;;;;;5020940;28;20393;-86
2023/09/07 04:27:08;;;;;;;13.80;9.82;;;21.40;99.90;;;;;;5027914;28;20052;-82
2023/09/07 04:29:36;;;;;;;15.77;9.63;;;21.30;99.90;;;;;;5017696;28;20037;-81
2023/09/07 04:32:04;;;;;;;14.93;8.95;;;21.30;99.90;;;;;;5020434;28;20077;-83
2023/09/07 04:34:31;;;;;;;13.20;9.10;;;21.20;99.90;;;;;;5022395;28;20045;-88
2023/09/07 04:36:59;;;;;;;16.25;8.82;;;21.20;99.90;;;;;;5019092;28;20057;-84
2023/09/07 04:39:26;;;;;;;13.70;9.57;;;21.20;99.90;;;;;;5018485;28;20034;-83
2023/09/07 04:41:53;;;;;;;13.20;8.95;;;21.10;99.90;;;;;;5021295;28;20489;-85
2023/09/07 04:44:21;;;;;;;11.60;8.77;;;21.20;99.90;;;;;;5023391;28;20048;-87
2023/09/07 04:46:49;;;;;;;13.55;9.40;;;21.30;99.90;;;;;;5020664;28;20066;-82
2023/09/07 04:49:17;;;;;;;13.00;9.10;;;21.30;99.90;;;;;;5024390;28;20065;-85
2023/09/07 04:51:44;;;;;;;12.23;8.77;;;21.40;99.90;;;;;;5016981;28;20049;-82
2023/09/07 04:54:11;;;;;;;13.77;9.70;;;21.50;99.90;;;;;;5020523;28;20388;-84
2023/09/07 04:56:38;;;;;;;11.88;9.23;;;21.50;99.90;;;;;;5018591;28;20054;-81
2023/09/07 04:59:05;;;;;;;96.60;67.18;;;21.40;99.90;;;;;;5023921;28;20048;-82
2023/09/07 05:01:33;;;;;;;90.45;65.10;;;21.40;99.90;;;;;;5023738;28;20456;-81
2023/09/07 05:04:03;;;;;;;22.58;17.02;;;21.40;99.90;;;;;;5012302;28;20041;-81
2023/09/07 05:06:37;;;;;;;17.10;11.07;;;21.30;99.90;;;;;;5017304;28;20049;-80
2023/09/07 05:09:04;;;;;;;14.65;9.98;;;21.00;99.90;;;;;;5017994;28;20046;-80
2023/09/07 05:11:34;;;;;;;18.02;11.32;;;20.80;99.90;;;;;;5023834;28;20049;-83
2023/09/07 05:14:02;;;;;;;13.93;10.65;;;21.10;99.90;;;;;;5019939;28;20579;-81
2023/09/07 05:16:30;;;;;;;16.70;12.13;;;21.30;99.90;;;;;;5018943;28;20042;-81
2023/09/07 05:18:58;;;;;;;14.93;10.80;;;21.50;99.90;;;;;;5015357;28;20050;-78
2023/09/07 05:21:28;;;;;;;14.70;10.52;;;21.50;99.90;;;;;;5024253;28;20053;-80
2023/09/07 05:23:55;;;;;;;15.57;11.57;;;21.60;99.90;;;;;;5023540;28;20045;-81
2023/09/07 05:26:26;;;;;;;14.60;10.48;;;21.70;99.90;;;;;;5021430;28;20056;-80
2023/09/07 05:28:53;;;;;;;;;;;21.70;99.90;;;;;;5012841;28;20132;-79
2023/09/07 05:31:20;;;;;;;38.92;24.63;;;21.60;99.90;;;;;;5021818;28;19936;-82
2023/09/07 05:33:51;;;;;;;17.83;11.55;;;21.60;99.90;;;;;;5025772;28;20073;-78
2023/09/07 05:36:19;;;;;;;29.25;21.13;;;21.50;99.90;;;;;;5021791;28;20056;-80
2023/09/07 05:38:46;;;;;;;32.63;22.48;;;21.70;99.90;;;;;;5022905;28;20521;-84
2023/09/07 05:41:13;;;;;;;27.50;16.05;;;21.70;99.90;;;;;;5021386;28;20065;-80
2023/09/07 05:43:41;;;;;;;18.38;12.40;;;21.70;99.90;;;;;;5018365;28;20034;-81
2023/09/07 05:46:08;;;;;;;17.80;10.90;;;21.70;99.90;;;;;;5019224;28;20034;-79
2023/09/07 05:48:35;;;;;;;18.13;10.98;;;21.70;99.90;;;;;;5021424;28;20075;-78
2023/09/07 05:51:03;;;;;;;19.13;10.75;;;21.50;99.90;;;;;;5016798;28;20504;-80
2023/09/07 05:53:30;;;;;;;19.73;11.57;;;21.50;99.90;;;;;;5022442;28;20055;-81
2023/09/07 05:55:58;;;;;;;16.13;10.77;;;21.60;99.90;;;;;;5012296;28;20034;-81
2023/09/07 05:58:25;;;;;;;32.67;19.27;;;21.70;99.90;;;;;;5020977;28;20046;-80
2023/09/07 06:00:52;;;;;;;54.75;36.55;;;22.00;99.90;;;;;;5022294;28;20069;-83
2023/09/07 06:03:20;;;;;;;16.60;13.25;;;22.20;99.90;;;;;;5021210;28;20385;-80
2023/09/07 06:05:47;;;;;;;19.08;11.23;;;21.90;99.90;;;;;;4987587;28;20049;-80
2023/09/07 06:08:14;;;;;;;17.08;11.00;;;21.70;99.90;;;;;;5026777;28;20049;-82
2023/09/07 06:10:42;;;;;;;15.13;10.13;;;21.60;99.90;;;;;;5021532;28;20504;-79
2023/09/07 06:13:09;;;;;;;16.50;11.05;;;21.70;99.90;;;;;;5003457;28;20480;-80
2023/09/07 06:15:36;;;;;;;18.67;9.65;;;21.50;99.90;;;;;;5018147;28;20122;-80
2023/09/07 06:18:05;;;;;;;15.57;9.27;;;21.50;99.90;;;;;;5026256;28;20042;-87
2023/09/07 06:20:32;;;;;;;14.23;9.90;;;21.50;99.90;;;;;;5017535;28;20121;-86
2023/09/07 06:23:09;;;;;;;15.57;8.60;;;21.60;99.90;;;;;;5007033;28;20215;-86
2023/09/07 06:25:39;;;;;;;15.88;8.50;;;21.70;99.90;;;;;;5036799;28;20057;-87
2023/09/07 06:28:06;;;;;;;15.05;9.32;;;21.80;99.90;;;;;;4987926;28;20041;-85
2023/09/07 06:30:34;;;;;;;12.80;9.10;;;21.80;99.90;;;;;;5009133;28;20081;-85
2023/09/07 06:33:07;;;;;;;12.80;7.60;;;22.10;99.90;;;;;;5029417;28;20121;-86
2023/09/07 06:35:34;;;;;;;10.95;8.35;;;22.00;99.90;;;;;;5025275;28;20049;-84
2023/09/07 06:38:02;;;;;;;11.82;7.47;;;22.40;99.90;;;;;;5028239;28;20572;-83
2023/09/07 06:40:29;;;;;;;12.30;8.00;;;22.20;99.90;;;;;;5017454;28;20038;-85
2023/09/07 06:42:57;;;;;;;12.82;7.85;;;21.90;99.90;;;;;;5028420;28;20050;-87
2023/09/07 06:45:24;;;;;;;16.45;8.07;;;22.10;99.90;;;;;;5005761;28;20497;-83
2023/09/07 06:47:52;;;;;;;10.82;7.10;;;22.50;99.90;;;;;;5023894;28;20046;-86
2023/09/07 06:50:21;;;;;;;13.10;7.65;;;22.80;99.90;;;;;;5025336;28;20041;-85
2023/09/07 06:52:48;;;;;;;14.43;8.45;;;22.90;99.90;;;;;;5019499;28;20042;-84
2023/09/07 06:55:16;;;;;;;11.05;7.80;;;23.10;99.90;;;;;;5006905;28;20049;-86
2023/09/07 06:57:43;;;;;;;12.30;7.32;;;23.30;99.90;;;;;;5022778;28;20049;-82
2023/09/07 07:00:11;;;;;;;13.07;7.30;;;23.00;99.90;;;;;;5029388;28;20073;-87
2023/09/07 07:02:40;;;;;;;12.38;6.82;;;23.00;99.90;;;;;;5033121;28;20077;-87
2023/09/07 07:05:08;;;;;;;9.27;6.72;;;23.10;99.90;;;;;;5028524;28;20045;-86
2023/09/07 07:07:35;;;;;;;11.40;7.32;;;23.20;99.90;;;;;;5023628;28;20041;-88
2023/09/07 07:10:04;;;;;;;14.43;7.18;;;23.30;99.90;;;;;;5020066;28;20034;-84
2023/09/07 07:12:34;;;;;;;11.85;7.78;;;23.60;99.90;;;;;;5027084;28;20081;-86
2023/09/07 07:15:02;;;;;;;11.73;6.60;;;23.60;99.90;;;;;;5022103;28;20037;-87
2023/09/07 07:17:30;;;;;;;14.80;7.20;;;23.80;99.90;;;;;;5014729;28;20302;-87
2023/09/07 07:19:57;;;;;;;12.80;6.53;;;23.60;99.90;;;;;;5019169;28;20096;-86
2023/09/07 07:22:24;;;;;;;9.60;6.40;;;23.10;99.90;;;;;;5015471;28;20545;-83
2023/09/07 07:24:52;;;;;;;12.23;6.70;;;22.80;99.90;;;;;;5017676;28;20041;-87
2023/09/07 07:27:19;;;;;;;12.30;6.78;;;23.00;99.90;;;;;;5021510;28;20042;-87
2023/09/07 07:29:46;;;;;;;10.43;6.35;;;22.80;99.90;;;;;;5024294;28;20041;-88
2023/09/07 07:32:14;;;;;;;10.48;6.45;;;22.70;99.90;;;;;;5030519;28;20038;-86
2023/09/07 07:34:43;;;;;;;11.35;6.47;;;23.20;99.90;;;;;;5016783;28;20080;-81
2023/09/07 07:37:16;;;;;;;10.05;6.28;;;22.70;99.90;;;;;;5011068;28;20081;-89
2023/09/07 07:39:43;;;;;;;8.68;6.80;;;22.50;99.90;;;;;;5014935;28;20445;-84
2023/09/07 07:42:11;;;;;;;11.07;6.55;;;22.40;99.90;;;;;;5018710;28;20064;-87
2023/09/07 07:44:38;;;;;;;14.02;6.82;;;22.50;99.90;;;;;;4999480;28;20057;-87
2023/09/07 07:47:06;;;;;;;15.82;6.95;;;22.70;99.90;;;;;;5018827;28;20095;-84
2023/09/07 07:49:36;;;;;;;15.15;7.68;;;22.90;99.90;;;;;;5024981;28;20043;-85
2023/09/07 07:52:04;;;;;;;13.05;7.38;;;23.00;99.90;;;;;;5033597;28;20388;-83
2023/09/07 07:54:41;;;;;;;12.73;7.82;;;23.10;99.90;;;;;;5035374;28;20033;-87
2023/09/07 07:57:08;;;;;;;13.25;7.18;;;22.80;99.90;;;;;;5020291;28;20396;-91
2023/09/07 07:59:40;;;;;;;13.02;6.70;;;22.80;99.90;;;;;;5033678;28;20042;-82
2023/09/07 08:02:07;;;;;;;17.63;8.63;;;22.80;99.90;;;;;;5024698;28;20489;-90
2023/09/07 08:04:35;;;;;;;10.68;7.15;;;23.30;99.90;;;;;;5009415;28;20041;-88
2023/09/07 08:07:04;;;;;;;11.38;6.63;;;23.20;99.90;;;;;;5033041;28;20037;-90
2023/09/07 08:09:31;;;;;;;11.75;6.85;;;23.50;99.90;;;;;;5021799;28;20243;-89
2023/09/07 08:12:04;;;;;;;11.45;6.78;;;23.60;99.90;;;;;;5033569;28;20033;-88
2023/09/07 08:14:44;;;;;;;13.57;6.55;;;23.70;99.90;;;;;;5038952;28;20033;-83
2023/09/07 08:17:12;;;;;;;11.38;6.93;;;23.70;99.90;;;;;;5018436;28;20042;-90
2023/09/07 08:19:41;;;;;;;10.75;7.00;;;23.70;99.90;;;;;;5034499;28;20059;-89
2023/09/07 08:22:12;;;;;;;11.57;7.20;;;23.70;99.90;;;;;;5035771;28;20084;-85
2023/09/07 08:24:56;;;;;;;11.48;7.15;;;23.70;99.90;;;;;;5005789;28;20042;-92
2023/09/07 08:27:46;;;;;;;11.02;7.15;;;23.60;99.90;;;;;;5035705;28;20117;-89
2023/09/07 08:30:16;;;;;;;13.88;7.40;;;24.10;99.90;;;;;;5004132;28;20478;-92
2023/09/07 08:32:47;;;;;;;;;;;24.60;99.70;;;;;;5031053;28;20042;-93
2023/09/07 08:35:16;;;;;;;11.45;7.13;;;24.80;99.40;;;;;;5034954;28;19921;-91
2023/09/07 08:37:44;;;;;;;11.70;7.05;;;25.10;98.80;;;;;;5027585;28;20077;-88
2023/09/07 08:40:11;;;;;;;10.30;6.68;;;24.30;99.60;;;;;;5024617;28;20054;-89
2023/09/07 08:42:46;;;;;;;9.30;6.72;;;24.40;99.50;;;;;;5009831;28;20038;-89
2023/09/07 08:45:20;;;;;;;10.50;7.03;;;24.80;99.10;;;;;;5015397;28;20772;-78
2023/09/07 08:47:50;;;;;;;11.43;7.13;;;24.90;98.40;;;;;;5029185;28;20050;-86
2023/09/07 08:50:18;;;;;;;13.23;7.60;;;25.30;98.50;;;;;;5029807;28;20103;-83
2023/09/07 08:52:51;;;;;;;10.77;6.82;;;25.00;98.50;;;;;;5026275;28;20120;-88
2023/09/07 08:55:20;;;;;;;8.98;6.32;;;25.40;98.10;;;;;;4993735;28;20052;-81
2023/09/07 08:57:48;;;;;;;10.13;6.82;;;25.60;97.60;;;;;;5017171;28;20050;-83
2023/09/07 09:00:19;;;;;;;11.73;6.57;;;25.40;97.20;;;;;;5010347;28;20042;-86
2023/09/07 09:02:47;;;;;;;9.80;7.15;;;25.50;97.20;;;;;;5018883;28;20128;-84
2023/09/07 09:05:20;;;;;;;11.95;6.55;;;25.60;97.00;;;;;;5022209;28;20069;-85
2023/09/07 09:07:47;;;;;;;9.60;6.63;;;26.00;96.60;;;;;;5008979;28;20042;-81
2023/09/07 09:10:14;;;;;;;12.70;6.78;;;25.90;96.40;;;;;;5027145;28;20038;-85
2023/09/07 09:12:47;;;;;;;10.63;6.82;;;26.30;96.00;;;;;;5025863;28;20067;-82
2023/09/07 09:15:15;;;;;;;11.27;6.40;;;26.40;95.70;;;;;;4989201;28;20042;-85
2023/09/07 09:17:44;;;;;;;10.63;7.20;;;26.10;94.50;;;;;;5023761;28;20080;-84
2023/09/07 09:20:23;;;;;;;9.83;7.00;;;26.10;94.90;;;;;;5025268;28;20049;-82
2023/09/07 09:23:04;;;;;;;12.18;6.93;;;26.00;94.90;;;;;;5025334;28;20385;-83
2023/09/07 09:25:31;;;;;;;9.45;6.25;;;26.00;94.60;;;;;;5010320;28;20058;-82
2023/09/07 09:28:02;;;;;;;12.23;6.65;;;26.20;94.60;;;;;;5025547;28;20362;-84
2023/09/07 09:30:30;;;;;;;9.98;7.28;;;26.20;94.20;;;;;;5026182;28;20053;-86
2023/09/07 09:32:59;;;;;;;11.32;6.50;;;26.50;94.30;;;;;;5035258;28;20076;-88
2023/09/07 09:35:29;;;;;;;9.65;6.70;;;26.50;93.70;;;;;;5015449;28;20041;-83
2023/09/07 09:38:23;;;;;;;9.18;6.57;;;26.70;93.40;;;;;;5011829;28;20033;-89
2023/09/07 09:40:55;;;;;;;10.25;6.15;;;26.80;93.70;;;;;;5025332;28;20042;-81
2023/09/07 09:43:25;;;;;;;12.35;6.88;;;26.90;93.20;;;;;;5002311;28;20041;-84
2023/09/07 09:45:56;;;;;;;13.48;7.18;;;26.90;92.90;;;;;;5019561;28;20120;-85
2023/09/07 09:48:27;;;;;;;11.98;6.90;;;27.00;92.70;;;;;;5006110;28;20113;-89
2023/09/07 09:50:59;;;;;;;12.05;6.32;;;26.90;92.40;;;;;;5030704;28;20058;-86
2023/09/07 09:53:29;;;;;;;9.75;6.93;;;26.90;92.30;;;;;;5035520;28;20100;-90
2023/09/07 09:55:56;;;;;;;11.30;6.28;;;26.90;91.70;;;;;;5021145;28;20038;-81
2023/09/07 09:58:23;;;;;;;8.90;6.00;;;26.80;91.90;;;;;;5019266;28;20061;-84
2023/09/07 10:00:55;;;;;;;9.68;7.20;;;26.70;91.90;;;;;;5014123;28;20046;-82
2023/09/07 10:03:32;;;;;;;10.35;6.55;;;26.80;92.10;;;;;;5028857;28;20559;-84
2023/09/07 10:06:18;;;;;;;11.18;6.70;;;26.90;91.50;;;;;;5022793;28;20041;-79
2023/09/07 10:08:57;;;;;;;12.63;7.75;;;27.20;91.40;;;;;;5014676;28;20460;-84
2023/09/07 10:11:33;;;;;;;11.43;6.95;;;27.20;91.00;;;;;;5026568;28;20064;-82
2023/09/07 10:14:05;;;;;;;15.20;8.20;;;27.50;91.00;;;;;;5022680;28;20033;-83
2023/09/07 10:16:43;;;;;;;9.00;6.18;;;27.70;90.80;;;;;;5021223;28;20052;-83
2023/09/07 10:19:15;;;;;;;15.98;8.13;;;27.70;90.30;;;;;;5016359;28;20083;-86
2023/09/07 10:21:43;;;;;;;13.68;8.20;;;27.90;90.40;;;;;;5023065;28;20038;-80
2023/09/07 10:24:11;;;;;;;11.90;7.15;;;28.10;89.70;;;;;;5018447;28;20046;-82
2023/09/07 10:26:38;;;;;;;10.43;5.93;;;28.00;87.80;;;;;;5019374;28;20045;-80
2023/09/07 10:29:07;;;;;;;15.00;7.07;;;28.10;87.70;;;;;;5010785;28;20075;-82
2023/09/07 10:31:35;;;;;;;11.80;6.72;;;28.50;88.10;;;;;;5029584;28;20482;-81
2023/09/07 10:34:22;;;;;;;9.32;6.22;;;28.70;84.40;;;;;;5011615;28;20046;-81
2023/09/07 10:36:55;;;;;;;;;;;28.10;85.10;;;;;;5022058;28;20040;-81
2023/09/07 10:39:22;;;;;;;9.95;5.47;;;27.90;86.70;;;;;;5019422;28;19925;-80
2023/09/07 10:41:50;;;;;;;11.40;6.50;;;28.30;85.80;;;;;;5003044;28;20065;-79
2023/09/07 10:44:25;;;;;;;14.00;6.97;;;28.30;85.10;;;;;;5015302;28;20079;-80
2023/09/07 10:46:53;;;;;;;12.15;7.22;;;28.40;85.30;;;;;;5016718;28;20042;-81
2023/09/07 10:49:20;;;;;;;8.85;6.45;;;28.30;85.80;;;;;;5022808;28;20045;-80
2023/09/07 10:51:48;;;;;;;11.60;6.78;;;28.00;83.70;;;;;;5020413;28;20038;-82
2023/09/07 10:54:17;;;;;;;8.40;6.13;;;27.90;84.30;;;;;;5019221;28;20042;-82
2023/09/07 10:56:49;;;;;;;12.32;6.68;;;28.00;84.60;;;;;;5018773;28;20382;-82
2023/09/07 10:59:17;;;;;;;9.25;6.13;;;27.60;85.60;;;;;;5017564;28;20394;-84
2023/09/07 11:01:45;;;;;;;25.10;10.05;;;28.30;84.80;;;;;;5026779;28;20056;-85
2023/09/07 11:04:13;;;;;;;24.38;10.68;;;28.90;83.90;;;;;;5023329;28;20406;-90
2023/09/07 11:06:42;;;;;;;12.77;6.78;;;29.50;83.20;;;;;;5036019;28;20030;-89
2023/09/07 11:09:11;;;;;;;18.30;6.78;;;29.80;81.00;;;;;;5014644;28;20042;-86
2023/09/07 11:11:47;;;;;;;13.13;6.75;;;28.60;82.50;;;;;;4998874;28;20041;-92
2023/09/07 11:14:15;;;;;;;13.52;7.22;;;29.10;80.40;;;;;;5032228;28;20049;-92
2023/09/07 11:16:43;;;;;;;10.35;5.82;;;29.50;78.00;;;;;;5027261;28;20079;-92
2023/09/07 11:19:10;;;;;;;10.80;6.40;;;29.60;76.70;;;;;;5034936;28;20042;-91
2023/09/07 11:21:39;;;;;;;14.27;6.30;;;29.40;76.50;;;;;;5046571;28;20347;-90
2023/09/07 11:24:08;;;;;;;7.15;4.93;;;29.80;75.90;;;;;;5028729;28;20094;-87
2023/09/07 11:26:49;;;;;;;9.52;5.97;;;28.60;75.40;;;;;;5038692;28;20057;-89
2023/09/07 11:29:34;;;;;;;11.20;5.68;;;28.70;76.00;;;;;;5048021;28;20081;-92
2023/09/07 11:32:10;;;;;;;7.22;5.25;;;29.10;75.70;;;;;;5050430;28;20018;-86
2023/09/07 11:35:12;;;;;;;12.30;5.95;;;29.40;75.20;;;;;;5034705;28;20049;-86
2023/09/07 11:37:42;;;;;;;11.95;7.20;;;29.30;76.00;;;;;;5027508;28;20033;-89
2023/09/07 11:40:12;;;;;;;8.90;5.63;;;29.30;75.00;;;;;;5044564;28;20034;-93
2023/09/07 11:42:40;;;;;;;10.00;6.03;;;29.70;75.30;;;;;;5043474;28;20040;-88
2023/09/07 11:45:19;;;;;;;9.25;5.68;;;29.80;74.60;;;;;;5034537;28;20469;-82
2023/09/07 11:47:48;;;;;;;9.85;6.07;;;29.70;74.50;;;;;;5033242;28;20049;-91
2023/09/07 11:50:18;;;;;;;9.75;6.35;;;29.80;73.90;;;;;;5033424;28;20038;-85
2023/09/07 11:52:45;;;;;;;12.30;6.75;;;29.90;73.30;;;;;;5047749;28;20041;-89
2023/09/07 11:55:16;;;;;;;11.52;5.78;;;30.00;73.80;;;;;;5037692;28;20088;-91
2023/09/07 11:57:44;;;;;;;10.40;7.05;;;30.00;72.90;;;;;;5041044;28;20042;-91
2023/09/07 12:00:22;;;;;;;8.45;5.97;;;29.90;73.20;;;;;;5016559;28;20928;-87
2023/09/07 12:02:50;;;;;;;12.73;6.88;;;30.00;73.20;;;;;;5032412;28;20057;-86
2023/09/07 12:05:19;;;;;;;12.73;6.22;;;30.10;73.70;;;;;;5034592;28;20050;-91
2023/09/07 12:07:47;;;;;;;9.47;5.90;;;30.30;72.80;;;;;;5032761;28;20394;-93
2023/09/07 12:10:17;;;;;;;8.85;5.65;;;30.30;72.00;;;;;;5031732;28;20047;-89
2023/09/07 12:12:44;;;;;;;9.68;6.40;;;30.20;71.80;;;;;;5037518;28;20099;-87
2023/09/07 12:15:12;;;;;;;8.57;6.07;;;30.20;72.60;;;;;;5038367;28;20065;-87
2023/09/07 12:17:42;;;;;;;9.32;5.82;;;30.40;71.60;;;;;;5026914;28;20041;-83
2023/09/07 12:20:16;;;;;;;9.10;6.20;;;30.30;71.60;;;;;;5041032;28;20384;-92
2023/09/07 12:22:44;;;;;;;12.98;6.85;;;30.80;71.30;;;;;;5035022;28;20053;-86
2023/09/07 12:25:11;;;;;;;10.23;5.85;;;31.00;71.60;;;;;;5045179;28;20064;-85
2023/09/07 12:27:43;;;;;;;12.82;6.07;;;30.80;71.10;;;;;;5033950;28;20080;-91
2023/09/07 12:30:22;;;;;;;9.05;5.65;;;31.00;70.80;;;;;;5036975;28;20103;-91
2023/09/07 12:32:51;;;;;;;9.88;6.13;;;30.90;70.90;;;;;;5044182;28;20033;-82
2023/09/07 12:35:20;;;;;;;10.27;5.77;;;30.90;70.90;;;;;;5015739;28;20050;-89
2023/09/07 12:37:52;;;;;;;9.55;5.60;;;31.00;69.40;;;;;;5033809;28;20045;-86
2023/09/07 12:40:20;;;;;;;10.93;5.60;;;30.70;69.80;;;;;;5030438;28;20046;-92
2023/09/07 12:42:47;;;;;;;12.63;6.13;;;30.60;69.80;;;;;;5033031;28;20042;-85
2023/09/07 12:45:22;;;;;;;9.43;6.10;;;31.10;69.10;;;;;;5022761;28;20041;-90
2023/09/07 12:47:54;;;;;;;10.75;5.57;;;31.40;69.20;;;;;;5038804;28;20068;-91
2023/09/07 12:50:23;;;;;;;10.15;6.03;;;31.60;69.60;;;;;;5014885;28;20051;-89
2023/09/07 12:52:50;;;;;;;10.85;6.28;;;31.50;69.50;;;;;;5038148;28;20092;-88